createdAt,value
2023-01-20T00:01:57.169Z,2.00
2023-01-20T00:04:23.670Z,2.10
2023-01-20T00:06:50.228Z,2.00
2023-01-20T00:09:17.907Z,2.10
2023-01-20T00:11:44.782Z,2.10
2023-01-20T00:14:11.669Z,2.10
2023-01-20T00:16:38.370Z,2.00
2023-01-20T00:19:05.118Z,2.00
2023-01-20T00:21:31.668Z,2.00
2023-01-20T00:23:58.214Z,2.00
2023-01-20T00:26:25.236Z,2.00
2023-01-20T00:28:55.727Z,2.00
2023-01-20T00:31:26.568Z,1.90
2023-01-20T00:33:54.447Z,2.00
2023-01-20T00:36:22.860Z,2.00
2023-01-20T00:38:49.678Z,2.00
2023-01-20T00:41:16.502Z,1.90
2023-01-20T00:43:43.131Z,2.00
2023-01-20T00:46:09.741Z,2.00
2023-01-20T00:48:36.633Z,2.00
2023-01-20T00:51:03.995Z,2.00
2023-01-20T00:53:30.774Z,2.00
2023-01-20T00:55:57.448Z,2.00
2023-01-20T00:58:24.069Z,2.00
2023-01-20T01:00:51.485Z,2.10
2023-01-20T01:03:18.538Z,2.10
2023-01-20T01:05:45.423Z,2.00
2023-01-20T01:08:12.123Z,2.00
2023-01-20T01:10:39.053Z,2.00
2023-01-20T01:13:06.070Z,2.00
2023-01-20T01:15:32.644Z,2.00
2023-01-20T01:17:59.430Z,2.00
2023-01-20T01:20:26.200Z,2.00
2023-01-20T01:22:52.838Z,2.00
2023-01-20T01:25:19.398Z,2.00
2023-01-20T01:27:45.928Z,2.00
2023-01-20T01:30:12.926Z,2.00
2023-01-20T01:32:39.534Z,2.00
2023-01-20T01:35:06.340Z,2.00
2023-01-20T01:37:32.912Z,2.10
2023-01-20T01:39:59.579Z,2.10
2023-01-20T01:42:26.445Z,2.10
2023-01-20T01:45:11.443Z,2.10
2023-01-20T01:47:39.586Z,2.10
2023-01-20T01:50:06.749Z,2.10
2023-01-20T01:52:33.519Z,2.10
2023-01-20T01:55:00.306Z,2.20
2023-01-20T01:57:27.193Z,2.10
2023-01-20T01:59:53.809Z,2.10
2023-01-20T02:02:20.498Z,2.40
2023-01-20T02:04:50.638Z,2.20
2023-01-20T02:07:19.310Z,2.20
2023-01-20T02:09:46.563Z,2.10
2023-01-20T02:12:17.873Z,2.20
2023-01-20T02:14:47.101Z,2.10
2023-01-20T02:17:31.114Z,2.10
2023-01-20T02:20:00.491Z,2.10
2023-01-20T02:22:38.598Z,2.10
2023-01-20T02:25:14.180Z,2.10
2023-01-20T02:27:59.508Z,2.20
2023-01-20T02:30:34.666Z,2.20
2023-01-20T02:33:15.957Z,2.10
2023-01-20T02:35:45.660Z,2.10
2023-01-20T02:38:31.069Z,2.10
2023-01-20T02:40:59.562Z,2.10
2023-01-20T02:43:44.979Z,2.20
2023-01-20T02:46:20.006Z,2.20
2023-01-20T02:48:51.537Z,2.10
2023-01-20T02:51:21.091Z,2.10
2023-01-20T02:53:49.454Z,2.10
2023-01-20T02:56:16.759Z,2.10
2023-01-20T02:58:47.666Z,2.10
2023-01-20T03:01:17.131Z,2.10
2023-01-20T03:03:45.858Z,2.00
2023-01-20T03:06:16.539Z,2.00
2023-01-20T03:08:44.318Z,2.00
2023-01-20T03:11:11.163Z,2.10
2023-01-20T03:13:41.612Z,2.00
2023-01-20T03:16:14.229Z,2.00
2023-01-20T03:18:41.072Z,2.00
2023-01-20T03:21:08.822Z,1.90
2023-01-20T03:23:36.961Z,1.90
2023-01-20T03:26:06.888Z,1.90
2023-01-20T03:28:33.486Z,1.90
2023-01-20T03:31:01.844Z,1.90
2023-01-20T03:33:28.519Z,2.00
2023-01-20T03:35:55.473Z,1.90
2023-01-20T03:38:22.109Z,1.90
2023-01-20T03:40:53.696Z,1.90
2023-01-20T03:43:26.661Z,1.90
2023-01-20T03:46:03.048Z,1.90
2023-01-20T03:48:58.778Z,1.80
2023-01-20T03:51:33.532Z,1.80
2023-01-20T03:54:02.191Z,1.90
2023-01-20T03:56:32.051Z,1.80
2023-01-20T03:58:59.869Z,1.80
2023-01-20T04:01:31.808Z,1.80
2023-01-20T04:03:59.396Z,1.80
2023-01-20T04:06:27.255Z,1.70
2023-01-20T04:09:00.404Z,1.70
2023-01-20T04:11:27.945Z,1.70
2023-01-20T04:13:54.793Z,1.70
2023-01-20T04:16:22.275Z,1.70
2023-01-20T04:18:50.332Z,1.70
2023-01-20T04:21:37.411Z,1.70
2023-01-20T04:24:07.404Z,1.70
2023-01-20T04:26:33.924Z,1.70
2023-01-20T04:29:09.329Z,1.70
2023-01-20T04:31:37.944Z,1.70
2023-01-20T04:34:05.809Z,1.60
2023-01-20T04:36:32.360Z,1.60
2023-01-20T04:38:58.871Z,1.60
2023-01-20T04:41:25.565Z,1.60
2023-01-20T04:43:52.116Z,1.60
2023-01-20T04:46:18.720Z,1.70
2023-01-20T04:48:46.167Z,1.70
2023-01-20T04:51:12.856Z,1.70
2023-01-20T04:53:39.355Z,1.70
2023-01-20T04:56:10.810Z,1.80
2023-01-20T04:58:37.303Z,1.70
2023-01-20T05:01:03.897Z,1.70
2023-01-20T05:03:30.443Z,1.70
2023-01-20T05:05:57.024Z,1.70
2023-01-20T05:08:23.726Z,1.70
2023-01-20T05:10:50.312Z,1.70
2023-01-20T05:13:16.835Z,1.80
2023-01-20T05:15:43.997Z,1.80
2023-01-20T05:18:10.848Z,1.80
2023-01-20T05:20:37.405Z,1.80
2023-01-20T05:23:04.069Z,1.80
2023-01-20T05:25:30.580Z,1.80
2023-01-20T05:27:58.374Z,1.80
2023-01-20T05:30:24.953Z,1.80
2023-01-20T05:32:52.151Z,1.80
2023-01-20T05:35:18.767Z,1.80
2023-01-20T05:37:45.275Z,1.80
2023-01-20T05:40:12.348Z,1.80
2023-01-20T05:42:38.984Z,1.90
2023-01-20T05:45:05.915Z,1.90
2023-01-20T05:47:32.431Z,1.90
2023-01-20T05:49:58.955Z,1.80
2023-01-20T05:52:25.479Z,1.90
2023-01-20T05:54:52.037Z,2.10
2023-01-20T05:57:18.589Z,1.90
2023-01-20T05:59:47.610Z,1.90
2023-01-20T06:02:18.641Z,1.90
2023-01-20T06:04:45.874Z,1.90
2023-01-20T06:07:12.483Z,1.90
2023-01-20T06:09:38.988Z,1.40
2023-01-20T06:12:05.896Z,1.90
2023-01-20T06:14:32.482Z,1.90
2023-01-20T06:16:59.025Z,1.90
2023-01-20T06:19:25.595Z,1.90
2023-01-20T06:21:53.427Z,1.90
2023-01-20T06:24:20.004Z,1.90
2023-01-20T06:26:46.529Z,1.90
2023-01-20T06:29:13.103Z,1.90
2023-01-20T06:31:39.749Z,1.90
2023-01-20T06:34:06.312Z,1.90
2023-01-20T06:36:32.862Z,1.90
2023-01-20T06:38:59.401Z,1.90
2023-01-20T06:41:25.945Z,1.90
2023-01-20T06:43:52.589Z,1.90
2023-01-20T06:46:19.190Z,1.90
2023-01-20T06:48:46.084Z,2.00
2023-01-20T06:51:14.562Z,1.90
2023-01-20T06:53:41.207Z,2.00
2023-01-20T06:56:09.414Z,1.90
2023-01-20T06:58:35.928Z,2.00
2023-01-20T07:01:11.433Z,2.00
2023-01-20T07:03:38.392Z,2.00
2023-01-20T07:06:07.589Z,2.00
2023-01-20T07:08:34.149Z,2.00
2023-01-20T07:11:00.693Z,2.00
2023-01-20T07:13:27.221Z,2.00
2023-01-20T07:15:53.740Z,2.00
2023-01-20T07:18:20.267Z,2.00
2023-01-20T07:20:46.822Z,2.00
2023-01-20T07:23:13.639Z,2.00
2023-01-20T07:25:40.199Z,2.00
2023-01-20T07:28:06.748Z,2.10
2023-01-20T07:30:33.319Z,2.10
2023-01-20T07:32:59.987Z,2.10
2023-01-20T07:35:26.513Z,2.10
2023-01-20T07:37:55.856Z,2.00
2023-01-20T07:40:22.416Z,2.10
2023-01-20T07:42:48.908Z,2.00
2023-01-20T07:45:16.341Z,2.00
2023-01-20T07:47:42.993Z,2.00
2023-01-20T07:50:09.902Z,2.00
2023-01-20T07:52:36.424Z,2.00
2023-01-20T07:55:02.960Z,2.00
2023-01-20T07:57:32.431Z,2.10
2023-01-20T07:59:58.948Z,2.10
2023-01-20T08:02:25.683Z,2.20
2023-01-20T08:04:52.308Z,2.10
2023-01-20T08:07:18.819Z,2.10
2023-01-20T08:09:45.972Z,2.10
2023-01-20T08:12:12.603Z,2.10
2023-01-20T08:14:39.089Z,2.10
2023-01-20T08:17:05.632Z,2.10
2023-01-20T08:19:32.123Z,2.10
2023-01-20T08:21:58.706Z,2.10
2023-01-20T08:24:25.252Z,2.20
2023-01-20T08:26:52.181Z,2.20
2023-01-20T08:29:18.705Z,2.20
2023-01-20T08:31:45.484Z,2.20
2023-01-20T08:34:12.364Z,2.30
2023-01-20T08:36:39.727Z,2.30
2023-01-20T08:39:07.544Z,2.30
2023-01-20T08:41:35.734Z,2.30
2023-01-20T08:44:04.355Z,2.40
2023-01-20T08:46:31.473Z,2.40
2023-01-20T08:48:58.205Z,2.40
2023-01-20T08:51:26.728Z,2.40
2023-01-20T08:53:53.442Z,2.50
2023-01-20T08:56:20.011Z,2.60
2023-01-20T08:58:47.052Z,2.50
2023-01-20T09:01:18.035Z,2.60
2023-01-20T09:04:02.991Z,2.60
2023-01-20T09:06:31.180Z,2.70
2023-01-20T09:08:57.780Z,2.70
2023-01-20T09:11:25.066Z,2.70
2023-01-20T09:13:51.775Z,2.70
2023-01-20T09:16:19.509Z,2.80
2023-01-20T09:18:46.157Z,2.80
2023-01-20T09:21:12.880Z,2.80
2023-01-20T09:23:39.964Z,2.90
2023-01-20T09:26:07.794Z,2.90
2023-01-20T09:28:34.693Z,2.90
2023-01-20T09:31:04.123Z,3.00
2023-01-20T09:33:30.977Z,3.00
2023-01-20T09:35:58.010Z,3.00
2023-01-20T09:38:43.867Z,3.00
2023-01-20T09:41:32.235Z,3.00
2023-01-20T09:44:01.564Z,3.10
2023-01-20T09:46:28.104Z,3.10
2023-01-20T09:49:13.412Z,3.20
2023-01-20T09:52:06.129Z,3.20
2023-01-20T09:54:37.990Z,3.20
2023-01-20T09:57:06.460Z,3.20
2023-01-20T09:59:38.931Z,3.10
2023-01-20T10:02:10.271Z,3.20
2023-01-20T10:04:43.726Z,3.20
2023-01-20T10:07:27.256Z,3.20
2023-01-20T10:09:59.312Z,3.20
2023-01-20T10:12:25.960Z,3.20
2023-01-20T10:14:55.528Z,3.10
2023-01-20T10:17:28.885Z,3.20
2023-01-20T10:20:04.002Z,3.00
2023-01-20T10:22:33.636Z,2.30
2023-01-20T10:25:06.370Z,3.00
2023-01-20T10:27:34.728Z,3.00
2023-01-20T10:30:07.613Z,3.10
2023-01-20T10:32:36.601Z,3.10
2023-01-20T10:35:15.384Z,3.00
2023-01-20T10:37:42.701Z,3.00
2023-01-20T10:40:21.406Z,3.10
2023-01-20T10:42:49.411Z,3.10
2023-01-20T10:45:21.351Z,3.10
2023-01-20T10:47:53.468Z,3.10
2023-01-20T10:50:30.999Z,3.20
2023-01-20T10:52:57.480Z,3.30
2023-01-20T10:55:30.983Z,3.30
2023-01-20T10:58:00.496Z,3.40
2023-01-20T11:00:28.711Z,3.40
2023-01-20T11:02:58.967Z,3.50
2023-01-20T11:05:27.393Z,3.60
2023-01-20T11:07:54.254Z,3.70
2023-01-20T11:10:22.194Z,3.80
2023-01-20T11:12:51.152Z,3.90
2023-01-20T11:15:20.764Z,4.10
2023-01-20T11:18:07.231Z,4.10
2023-01-20T11:20:35.548Z,4.30
2023-01-20T11:23:02.079Z,4.40
2023-01-20T11:25:28.642Z,4.50
2023-01-20T11:27:55.147Z,4.60
2023-01-20T11:30:29.507Z,4.60
2023-01-20T11:33:14.824Z,4.70
2023-01-20T11:35:56.098Z,4.70
2023-01-20T11:38:26.642Z,5.00
2023-01-20T11:40:54.102Z,4.80
2023-01-20T11:43:28.049Z,4.70
2023-01-20T11:46:09.183Z,4.70
2023-01-20T11:48:35.708Z,4.70
2023-01-20T11:51:02.584Z,4.70
2023-01-20T11:53:31.597Z,4.70
2023-01-20T11:56:01.065Z,4.60
2023-01-20T11:58:28.733Z,4.60
2023-01-20T12:01:05.772Z,4.70
2023-01-20T12:03:38.445Z,4.70
2023-01-20T12:06:13.248Z,4.70
2023-01-20T12:08:55.099Z,4.80
2023-01-20T12:11:31.185Z,4.90
2023-01-20T12:14:24.770Z,4.90
2023-01-20T12:17:14.757Z,5.00
2023-01-20T12:19:51.614Z,4.90
2023-01-20T12:22:20.937Z,4.80
2023-01-20T12:25:06.433Z,4.70
2023-01-20T12:27:33.737Z,4.70
2023-01-20T12:30:02.734Z,4.50
2023-01-20T12:32:31.757Z,4.40
2023-01-20T12:34:58.362Z,4.30
2023-01-20T12:37:30.738Z,4.30
2023-01-20T12:40:00.364Z,4.30
2023-01-20T12:42:34.169Z,4.20
2023-01-20T12:45:07.833Z,4.20
2023-01-20T12:47:40.334Z,4.10
2023-01-20T12:50:18.228Z,4.10
2023-01-20T12:52:51.411Z,4.20
2023-01-20T12:55:17.954Z,4.10
2023-01-20T12:57:44.422Z,4.10
2023-01-20T13:00:29.748Z,4.00
2023-01-20T13:02:56.405Z,4.00
2023-01-20T13:05:26.053Z,4.10
2023-01-20T13:08:00.771Z,4.20
2023-01-20T13:10:39.596Z,4.20
2023-01-20T13:13:06.067Z,4.20
2023-01-20T13:15:44.920Z,4.30
2023-01-20T13:18:11.461Z,4.40
2023-01-20T13:20:40.463Z,4.50
2023-01-20T13:23:07.095Z,4.50
2023-01-20T13:25:34.323Z,4.50
2023-01-20T13:28:01.108Z,4.60
2023-01-20T13:30:36.834Z,4.60
2023-01-20T13:33:06.998Z,4.50
2023-01-20T13:35:42.203Z,4.40
2023-01-20T13:38:17.670Z,4.40
2023-01-20T13:40:49.286Z,4.30
2023-01-20T13:43:25.257Z,4.20
2023-01-20T13:46:03.763Z,4.10
2023-01-20T13:48:31.300Z,4.00
2023-01-20T13:51:16.921Z,4.00
2023-01-20T13:53:43.561Z,4.00
2023-01-20T13:56:30.310Z,3.90
2023-01-20T13:58:59.858Z,3.80
2023-01-20T14:01:27.502Z,3.80
2023-01-20T14:04:12.621Z,3.70
2023-01-20T14:06:44.628Z,3.80
2023-01-20T14:09:17.949Z,3.80
2023-01-20T14:11:55.144Z,3.70
2023-01-20T14:14:23.406Z,3.70
2023-01-20T14:16:50.578Z,3.80
2023-01-20T14:19:25.363Z,3.80
2023-01-20T14:21:53.487Z,3.80
2023-01-20T14:24:27.314Z,3.90
2023-01-20T14:27:05.861Z,3.90
2023-01-20T14:29:32.368Z,3.90
2023-01-20T14:31:59.544Z,4.00
2023-01-20T14:34:28.078Z,4.00
2023-01-20T14:36:58.825Z,4.00
2023-01-20T14:39:26.534Z,4.10
2023-01-20T14:41:54.168Z,4.00
2023-01-20T14:44:24.620Z,4.00
2023-01-20T14:46:52.701Z,4.00
2023-01-20T14:49:20.226Z,3.90
2023-01-20T14:51:48.328Z,4.00
2023-01-20T14:54:28.964Z,4.00
2023-01-20T14:56:55.914Z,3.80
2023-01-20T14:59:22.515Z,3.70
2023-01-20T15:01:53.123Z,3.70
2023-01-20T15:04:19.742Z,3.60
2023-01-20T15:06:53.594Z,3.60
2023-01-20T15:09:33.919Z,3.60
2023-01-20T15:12:19.166Z,3.50
2023-01-20T15:14:56.438Z,3.50
2023-01-20T15:17:22.960Z,3.50
2023-01-20T15:19:49.599Z,3.40
2023-01-20T15:22:17.808Z,3.40
2023-01-20T15:24:47.103Z,3.40
2023-01-20T15:27:24.496Z,3.30
2023-01-20T15:30:10.589Z,3.30
2023-01-20T15:32:38.711Z,3.30
2023-01-20T15:35:05.579Z,3.30
2023-01-20T15:37:32.135Z,3.30
2023-01-20T15:39:59.454Z,3.30
2023-01-20T15:42:26.013Z,3.30
2023-01-20T15:44:52.573Z,3.30
2023-01-20T15:47:26.002Z,3.20
2023-01-20T15:49:52.501Z,3.20
2023-01-20T15:52:19.280Z,3.10
2023-01-20T15:54:45.771Z,3.10
2023-01-20T15:57:13.296Z,3.00
2023-01-20T15:59:39.887Z,2.80
2023-01-20T16:02:15.058Z,2.80
2023-01-20T16:04:41.615Z,2.70
2023-01-20T16:07:10.986Z,2.70
2023-01-20T16:09:38.586Z,2.60
2023-01-20T16:12:05.218Z,2.60
2023-01-20T16:14:31.729Z,2.60
2023-01-20T16:16:58.228Z,2.50
2023-01-20T16:19:24.735Z,2.40
2023-01-20T16:21:51.381Z,2.40
2023-01-20T16:24:17.932Z,2.40
2023-01-20T16:26:45.802Z,2.30
2023-01-20T16:29:12.480Z,2.20
2023-01-20T16:31:39.086Z,2.10
2023-01-20T16:34:05.641Z,2.10
2023-01-20T16:36:32.208Z,2.10
2023-01-20T16:38:58.756Z,2.00
2023-01-20T16:41:26.405Z,1.90
2023-01-20T16:43:53.789Z,1.90
2023-01-20T16:46:21.789Z,1.80
2023-01-20T16:48:48.672Z,1.90
2023-01-20T16:51:22.627Z,1.80
2023-01-20T16:53:49.406Z,1.80
2023-01-20T16:56:17.024Z,1.70
2023-01-20T16:58:43.808Z,1.60
2023-01-20T17:01:13.144Z,1.60
2023-01-20T17:03:40.253Z,1.60
2023-01-20T17:06:14.968Z,1.50
2023-01-20T17:08:43.748Z,1.50
2023-01-20T17:11:10.307Z,1.50
2023-01-20T17:13:38.347Z,1.40
2023-01-20T17:16:05.753Z,1.40
2023-01-20T17:18:32.297Z,1.40
2023-01-20T17:21:03.841Z,1.40
2023-01-20T17:23:30.388Z,1.30
2023-01-20T17:25:57.088Z,1.30
2023-01-20T17:28:23.680Z,1.30
2023-01-20T17:30:50.208Z,1.40
2023-01-20T17:33:16.732Z,1.20
2023-01-20T17:35:43.501Z,1.20
2023-01-20T17:38:10.659Z,1.20
2023-01-20T17:40:37.227Z,1.20
2023-01-20T17:43:04.661Z,1.20
2023-01-20T17:45:31.949Z,1.20
2023-01-20T17:47:58.479Z,1.10
2023-01-20T17:50:26.545Z,1.00
2023-01-20T17:52:53.131Z,1.00
2023-01-20T17:55:19.669Z,1.00
2023-01-20T17:57:46.153Z,1.00
2023-01-20T18:00:13.068Z,0.90
2023-01-20T18:02:39.738Z,0.90
2023-01-20T18:05:06.639Z,0.80
2023-01-20T18:07:33.951Z,0.80
2023-01-20T18:10:00.522Z,0.80
2023-01-20T18:12:27.256Z,0.70
2023-01-20T18:14:58.573Z,0.70
2023-01-20T18:17:25.115Z,0.70
2023-01-20T18:19:51.661Z,0.60
2023-01-20T18:22:18.895Z,0.60
2023-01-20T18:24:45.444Z,0.60
2023-01-20T18:27:11.976Z,0.50
2023-01-20T18:29:38.575Z,0.60
2023-01-20T18:32:05.224Z,0.50
2023-01-20T18:34:31.800Z,0.50
2023-01-20T18:36:58.307Z,0.50
2023-01-20T18:39:25.224Z,0.50
2023-01-20T18:41:51.817Z,0.40
2023-01-20T18:44:18.991Z,0.50
2023-01-20T18:46:45.714Z,0.40
2023-01-20T18:49:13.105Z,0.40
2023-01-20T18:51:39.644Z,0.40
2023-01-20T18:54:07.676Z,0.50
2023-01-20T18:56:34.413Z,0.40
2023-01-20T18:59:01.027Z,0.40
2023-01-20T19:01:33.633Z,0.40
2023-01-20T19:04:01.399Z,0.40
2023-01-20T19:06:29.021Z,0.30
2023-01-20T19:08:56.543Z,0.30
2023-01-20T19:11:25.044Z,0.30
2023-01-20T19:13:53.341Z,0.20
2023-01-20T19:16:21.545Z,0.30
2023-01-20T19:18:52.034Z,0.30
2023-01-20T19:21:18.820Z,0.30
2023-01-20T19:23:48.678Z,0.20
2023-01-20T19:26:18.489Z,0.20
2023-01-20T19:28:45.811Z,0.10
2023-01-20T19:31:14.117Z,0.10
2023-01-20T19:33:40.674Z,0.10
2023-01-20T19:36:08.831Z,0.00
2023-01-20T19:38:35.403Z,0.10
2023-01-20T19:41:05.901Z,0.00
2023-01-20T19:43:32.785Z,0.00
2023-01-20T19:46:06.930Z,0.00
2023-01-20T19:48:33.547Z,0.10
2023-01-20T19:51:07.248Z,0.00
2023-01-20T19:53:33.905Z,0.00
2023-01-20T19:56:04.672Z,0.00
2023-01-20T19:58:31.159Z,0.00
2023-01-20T20:01:07.996Z,0.00
2023-01-20T20:03:34.835Z,0.00
2023-01-20T20:06:01.743Z,-0.10
2023-01-20T20:08:28.463Z,-0.10
2023-01-20T20:10:55.393Z,-0.10
2023-01-20T20:13:22.842Z,-0.10
2023-01-20T20:15:49.687Z,-0.20
2023-01-20T20:18:16.193Z,-0.20
2023-01-20T20:20:44.488Z,-0.20
2023-01-20T20:23:11.097Z,-0.20
2023-01-20T20:25:37.753Z,-0.20
2023-01-20T20:28:04.805Z,-0.20
2023-01-20T20:30:31.414Z,-0.20
2023-01-20T20:32:58.569Z,-0.20
2023-01-20T20:35:25.106Z,-0.20
2023-01-20T20:37:51.712Z,-0.20
2023-01-20T20:40:18.604Z,-0.20
2023-01-20T20:42:45.229Z,-0.30
2023-01-20T20:45:11.982Z,-0.30
2023-01-20T20:47:38.536Z,-0.20
2023-01-20T20:50:05.459Z,-0.20
2023-01-20T20:52:32.066Z,-0.30
2023-01-20T20:54:58.696Z,-0.30
2023-01-20T20:57:25.220Z,-0.20
2023-01-20T20:59:58.970Z,-0.20
2023-01-20T21:02:26.116Z,-0.20
2023-01-20T21:04:52.704Z,-0.20
2023-01-20T21:07:19.480Z,-0.20
2023-01-20T21:09:45.986Z,-0.30
2023-01-20T21:12:12.520Z,-0.30
2023-01-20T21:14:39.036Z,-0.30
2023-01-20T21:17:05.558Z,-0.30
2023-01-20T21:19:32.094Z,-0.40
2023-01-20T21:21:59.116Z,-0.40
2023-01-20T21:24:29.894Z,-0.40
2023-01-20T21:26:56.478Z,-0.40
2023-01-20T21:29:23.117Z,-0.50
2023-01-20T21:31:50.259Z,-0.50
2023-01-20T21:34:16.901Z,-0.50
2023-01-20T21:36:43.417Z,-0.50
2023-01-20T21:39:14.179Z,-0.50
2023-01-20T21:41:40.989Z,-0.50
2023-01-20T21:44:29.259Z,-0.60
2023-01-20T21:47:00.380Z,-0.60
2023-01-20T21:49:46.135Z,-0.60
2023-01-20T21:52:32.536Z,-0.60
2023-01-20T21:54:59.213Z,-0.60
2023-01-20T21:57:26.173Z,-0.60
2023-01-20T21:59:52.752Z,-0.60
2023-01-20T22:02:19.363Z,-0.70
2023-01-20T22:04:46.153Z,-0.70
2023-01-20T22:07:13.135Z,-0.70
2023-01-20T22:09:39.880Z,-0.70
2023-01-20T22:12:07.022Z,-0.80
2023-01-20T22:14:33.545Z,-0.30
2023-01-20T22:17:00.150Z,-0.90
2023-01-20T22:19:27.051Z,-0.80
2023-01-20T22:21:53.864Z,-0.80
2023-01-20T22:24:20.425Z,-0.90
2023-01-20T22:26:48.250Z,-0.90
2023-01-20T22:29:15.236Z,-0.90
2023-01-20T22:31:41.848Z,-1.00
2023-01-20T22:34:09.114Z,-1.00
2023-01-20T22:36:36.372Z,-0.90
2023-01-20T22:39:03.741Z,-0.90
2023-01-20T22:41:30.411Z,-0.90
2023-01-20T22:43:56.999Z,-0.90
2023-01-20T22:46:24.842Z,-0.90
2023-01-20T22:48:51.467Z,-0.90
2023-01-20T22:51:19.516Z,-0.90
2023-01-20T22:53:46.108Z,-0.80
2023-01-20T22:56:14.434Z,-0.90
2023-01-20T22:58:41.475Z,-0.90
2023-01-20T23:01:12.295Z,-1.00
2023-01-20T23:03:38.918Z,-0.90
2023-01-20T23:06:05.484Z,-1.00
2023-01-20T23:08:32.059Z,-1.00
2023-01-20T23:11:09.580Z,-1.00
2023-01-20T23:13:38.413Z,-1.00
2023-01-20T23:16:06.581Z,-1.00
2023-01-20T23:18:34.851Z,-1.00
2023-01-20T23:21:01.405Z,-1.00
2023-01-20T23:23:27.958Z,-1.10
2023-01-20T23:26:05.218Z,-1.00
2023-01-20T23:28:32.470Z,-1.30
2023-01-20T23:31:00.443Z,-1.00
2023-01-20T23:33:27.060Z,-1.10
2023-01-20T23:35:53.587Z,-1.10
2023-01-20T23:38:20.126Z,-1.10
2023-01-20T23:40:49.588Z,-1.00
2023-01-20T23:43:16.285Z,-1.00
2023-01-20T23:45:42.855Z,-1.00
2023-01-20T23:48:09.440Z,-1.00
2023-01-20T23:50:35.936Z,-0.90
2023-01-20T23:53:02.536Z,-0.90
2023-01-20T23:55:29.104Z,-0.90
2023-01-20T23:57:56.071Z,-0.80
